Tropical Cyclones
[Index]
Main Index Home Page Stock Weather Photos Extreme Storms Discussion Storm News and Storm Chasing Reports Tropical Cyclones / Hurricanes / Typhoons Weather Data and Links Wild Fires / Bushfires Weather Observation Techniques Weather Picture Catalogue Tornado Pictures and Reports Stock Video Footage and DVDs for sale
Season 1992-1993 Tropical Cyclone OLIVER Track Map
Season 1992-1993 Summaries: [BoM-AU] [JTWC-AU] [JTWC-SIO] [JTWC-SPAC] [JTWC-SH]
<<- Previous TC | JTWC 1992-1993 Season | Next TC ->>

click for intensity scale information  Lat/long Grid: Show Hide

 Date Labels: Show Hide

Joint Typhoon Warning Centre Cyclone Data

Name: OLIVER

03 Feb 1993 06:00 UTC to 14 Feb 1993 00:00 UTC

    date/time    lat    long     hPa   cat  kts
1993-02-03 06   12.4   151.1                  20          
1993-02-03 12   12.9   151.0                  20          
1993-02-03 18   13.4   150.9                  20          
1993-02-04 00   13.9   150.8                  25          
1993-02-04 06   14.3   150.6                  30          
1993-02-04 12   14.7   150.3                  30          
1993-02-04 18   14.9   150.0                  35          
1993-02-05 00   14.8   149.7            1     40          
1993-02-05 06   14.6   150.0            1     45          
1993-02-05 12   14.9   150.3            1     50          
1993-02-05 18   15.2   150.6            2     60          
1993-02-06 00   15.4   150.9            2     70          
1993-02-06 06   15.6   151.4            3     80          
1993-02-06 12   15.8   151.8            3     85          
1993-02-06 18   16.1   152.1            3     90          
1993-02-07 00   16.5   152.3            3     95          
1993-02-07 06   16.8   152.2            4    100          
1993-02-07 12   17.1   152.1            4    105          
1993-02-07 18   17.4   151.9            4    115          
1993-02-08 00   17.7   151.9            4    115          
1993-02-08 06   18.0   151.9            4    115          
1993-02-08 12   18.3   151.9            4    110          
1993-02-08 18   18.6   152.0            4    100          
1993-02-09 00   19.1   152.2            3     95          
1993-02-09 06   19.4   152.6            3     95          
1993-02-09 12   19.7   153.0            3     90          
1993-02-09 18   19.8   153.4            3     80          
1993-02-10 00   19.9   153.8            3     75          
1993-02-10 06   20.0   154.2            2     65          
1993-02-10 12   20.2   154.5            2     60          
1993-02-10 18   20.5   154.8            2     55          
1993-02-11 00   20.8   155.0            1     45          
1993-02-11 06   21.1   155.2            1     40          
1993-02-11 12   21.4   155.4                  35          
1993-02-11 18   21.8   155.5                  35          
1993-02-12 00   22.3   155.6                  35          
1993-02-12 06   22.7   155.4                  35          
1993-02-12 12   23.0   155.0                  35          
1993-02-12 18   22.9   154.4                  30          
1993-02-13 00   22.6   153.7                  30          
1993-02-13 06   21.9   153.0                  25          
1993-02-13 12   20.9   152.2                  25          
1993-02-13 18   20.0   151.3                  20          
1993-02-14 00   19.2   150.4                  20          
Winds are 1-min average.

Tropical cyclone tracks developed by Michael Bath using data from the Joint Typhoon Warning Centre Best Tracks and Google Maps.


[Australian Severe Weather index] [Copyright Notice] [Email Contacts] [Search This Site] [Privacy Policy]
Document: tropical_cyclone_oliver.htm Updated: 18 September 2016